sensor_id;sensor_type;location;lat;lon;timestamp;pressure;altitude;pressure_sealevel;temperature
71463;BMP180;59266;52.608;13.260;2022-07-29T00:01:44;101602.00;;;14.60
71463;BMP180;59266;52.608;13.260;2022-07-29T00:04:11;101598.00;;;14.50
71463;BMP180;59266;52.608;13.260;2022-07-29T00:06:39;101605.00;;;14.40
71463;BMP180;59266;52.608;13.260;2022-07-29T00:09:05;101603.00;;;14.50
71463;BMP180;59266;52.608;13.260;2022-07-29T00:11:32;101605.00;;;14.50
71463;BMP180;59266;52.608;13.260;2022-07-29T00:13:58;101609.00;;;14.50
71463;BMP180;59266;52.608;13.260;2022-07-29T00:16:25;101608.00;;;14.50
71463;BMP180;59266;52.608;13.260;2022-07-29T00:18:52;101615.00;;;14.50
71463;BMP180;59266;52.608;13.260;2022-07-29T00:21:18;101607.00;;;14.30
71463;BMP180;59266;52.608;13.260;2022-07-29T00:23:45;101604.00;;;14.40
71463;BMP180;59266;52.608;13.260;2022-07-29T00:26:11;101605.00;;;14.30
71463;BMP180;59266;52.608;13.260;2022-07-29T00:28:38;101608.00;;;14.30
71463;BMP180;59266;52.608;13.260;2022-07-29T00:31:04;101601.00;;;14.30
71463;BMP180;59266;52.608;13.260;2022-07-29T00:33:32;101599.00;;;14.30
71463;BMP180;59266;52.608;13.260;2022-07-29T00:35:58;101591.00;;;14.30
71463;BMP180;59266;52.608;13.260;2022-07-29T00:38:25;101593.00;;;14.10
71463;BMP180;59266;52.608;13.260;2022-07-29T00:40:52;101589.00;;;14.20
71463;BMP180;59266;52.608;13.260;2022-07-29T00:43:18;101584.00;;;14.20
71463;BMP180;59266;52.608;13.260;2022-07-29T00:45:45;101583.00;;;14.10
71463;BMP180;59266;52.608;13.260;2022-07-29T00:48:12;101586.00;;;14.10
71463;BMP180;59266;52.608;13.260;2022-07-29T00:50:38;101581.00;;;14.20
71463;BMP180;59266;52.608;13.260;2022-07-29T00:53:07;101588.00;;;14.10
71463;BMP180;59266;52.608;13.260;2022-07-29T00:55:34;101583.00;;;14.00
71463;BMP180;59266;52.608;13.260;2022-07-29T00:58:01;101578.00;;;14.00
71463;BMP180;59266;52.608;13.260;2022-07-29T01:00:28;101587.00;;;14.00
71463;BMP180;59266;52.608;13.260;2022-07-29T01:02:55;101587.00;;;13.90
71463;BMP180;59266;52.608;13.260;2022-07-29T01:05:24;101577.00;;;13.90
71463;BMP180;59266;52.608;13.260;2022-07-29T01:08:13;101582.00;;;13.90
71463;BMP180;59266;52.608;13.260;2022-07-29T01:10:41;101576.00;;;13.90
71463;BMP180;59266;52.608;13.260;2022-07-29T01:13:09;101578.00;;;13.90
71463;BMP180;59266;52.608;13.260;2022-07-29T01:15:43;101577.00;;;13.80
71463;BMP180;59266;52.608;13.260;2022-07-29T01:18:28;101571.00;;;13.70
71463;BMP180;59266;52.608;13.260;2022-07-29T01:21:23;101575.00;;;13.70
71463;BMP180;59266;52.608;13.260;2022-07-29T01:27:45;101560.00;;;13.70
71463;BMP180;59266;52.608;13.260;2022-07-29T01:29:54;101551.00;;;13.60
71463;BMP180;59266;52.608;13.260;2022-07-29T01:32:26;101550.00;;;13.60
71463;BMP180;59266;52.608;13.260;2022-07-29T01:37:45;101545.00;;;13.50
71463;BMP180;59266;52.608;13.260;2022-07-29T01:40:19;101538.00;;;13.50
71463;BMP180;59266;52.608;13.260;2022-07-29T01:42:51;101529.00;;;13.50
71463;BMP180;59266;52.608;13.260;2022-07-29T01:45:28;101510.00;;;13.50
71463;BMP180;59266;52.608;13.260;2022-07-29T01:48:05;101510.00;;;13.50
71463;BMP180;59266;52.608;13.260;2022-07-29T01:50:35;101503.00;;;13.40
71463;BMP180;59266;52.608;13.260;2022-07-29T01:53:07;101498.00;;;13.40
71463;BMP180;59266;52.608;13.260;2022-07-29T01:55:39;101495.00;;;13.40
71463;BMP180;59266;52.608;13.260;2022-07-29T01:58:07;101492.00;;;13.40
71463;BMP180;59266;52.608;13.260;2022-07-29T02:00:35;101486.00;;;13.40
71463;BMP180;59266;52.608;13.260;2022-07-29T02:03:05;101488.00;;;13.40
71463;BMP180;59266;52.608;13.260;2022-07-29T02:05:34;101481.00;;;13.50
71463;BMP180;59266;52.608;13.260;2022-07-29T02:08:02;101487.00;;;13.60
71463;BMP180;59266;52.608;13.260;2022-07-29T02:10:31;101478.00;;;13.40
71463;BMP180;59266;52.608;13.260;2022-07-29T02:12:59;101485.00;;;13.60
71463;BMP180;59266;52.608;13.260;2022-07-29T02:15:29;101484.00;;;13.50
71463;BMP180;59266;52.608;13.260;2022-07-29T02:18:03;101488.00;;;13.60
71463;BMP180;59266;52.608;13.260;2022-07-29T02:20:31;101479.00;;;13.50
71463;BMP180;59266;52.608;13.260;2022-07-29T02:22:59;101493.00;;;13.60
71463;BMP180;59266;52.608;13.260;2022-07-29T02:25:27;101490.00;;;13.60
71463;BMP180;59266;52.608;13.260;2022-07-29T02:28:03;101491.00;;;13.50
71463;BMP180;59266;52.608;13.260;2022-07-29T02:30:31;101497.00;;;13.50
71463;BMP180;59266;52.608;13.260;2022-07-29T02:32:58;101494.00;;;13.60
71463;BMP180;59266;52.608;13.260;2022-07-29T02:35:25;101505.00;;;13.60
71463;BMP180;59266;52.608;13.260;2022-07-29T02:37:59;101501.00;;;13.60
71463;BMP180;59266;52.608;13.260;2022-07-29T02:40:45;101494.00;;;13.70
71463;BMP180;59266;52.608;13.260;2022-07-29T02:43:12;101499.00;;;13.70
71463;BMP180;59266;52.608;13.260;2022-07-29T02:45:38;101497.00;;;13.60
71463;BMP180;59266;52.608;13.260;2022-07-29T02:48:10;101494.00;;;13.70
71463;BMP180;59266;52.608;13.260;2022-07-29T02:50:44;101495.00;;;13.60
71463;BMP180;59266;52.608;13.260;2022-07-29T02:53:18;101502.00;;;13.80
71463;BMP180;59266;52.608;13.260;2022-07-29T02:55:49;101507.00;;;13.70
71463;BMP180;59266;52.608;13.260;2022-07-29T03:00:48;101488.00;;;13.80
71463;BMP180;59266;52.608;13.260;2022-07-29T03:03:18;101494.00;;;13.70
71463;BMP180;59266;52.608;13.260;2022-07-29T03:05:45;101496.00;;;13.80
71463;BMP180;59266;52.608;13.260;2022-07-29T03:08:12;101492.00;;;13.80
71463;BMP180;59266;52.608;13.260;2022-07-29T03:10:43;101490.00;;;13.80
71463;BMP180;59266;52.608;13.260;2022-07-29T03:13:11;101485.00;;;13.90
71463;BMP180;59266;52.608;13.260;2022-07-29T03:15:39;101486.00;;;14.00
71463;BMP180;59266;52.608;13.260;2022-07-29T03:18:06;101501.00;;;14.00
71463;BMP180;59266;52.608;13.260;2022-07-29T03:20:33;101488.00;;;13.90
71463;BMP180;59266;52.608;13.260;2022-07-29T03:22:59;101486.00;;;13.90
71463;BMP180;59266;52.608;13.260;2022-07-29T03:25:26;101478.00;;;14.00
71463;BMP180;59266;52.608;13.260;2022-07-29T03:27:53;101476.00;;;13.90
71463;BMP180;59266;52.608;13.260;2022-07-29T03:30:20;101479.00;;;14.10
71463;BMP180;59266;52.608;13.260;2022-07-29T03:32:48;101482.00;;;14.00
71463;BMP180;59266;52.608;13.260;2022-07-29T03:35:18;101484.00;;;14.00
71463;BMP180;59266;52.608;13.260;2022-07-29T03:37:45;101479.00;;;14.00
71463;BMP180;59266;52.608;13.260;2022-07-29T03:40:16;101469.00;;;13.90
71463;BMP180;59266;52.608;13.260;2022-07-29T03:42:45;101463.00;;;14.00
71463;BMP180;59266;52.608;13.260;2022-07-29T03:45:15;101463.00;;;14.00
71463;BMP180;59266;52.608;13.260;2022-07-29T03:47:48;101460.00;;;13.90
71463;BMP180;59266;52.608;13.260;2022-07-29T03:50:22;101457.00;;;13.90
71463;BMP180;59266;52.608;13.260;2022-07-29T03:52:49;101457.00;;;13.90
71463;BMP180;59266;52.608;13.260;2022-07-29T03:55:16;101458.00;;;13.90
71463;BMP180;59266;52.608;13.260;2022-07-29T03:57:44;101468.00;;;14.00
71463;BMP180;59266;52.608;13.260;2022-07-29T04:00:11;101461.00;;;14.00
71463;BMP180;59266;52.608;13.260;2022-07-29T04:02:38;101454.00;;;13.90
71463;BMP180;59266;52.608;13.260;2022-07-29T04:05:12;101465.00;;;13.90
71463;BMP180;59266;52.608;13.260;2022-07-29T04:07:39;101460.00;;;14.00
71463;BMP180;59266;52.608;13.260;2022-07-29T04:10:05;101461.00;;;14.10
71463;BMP180;59266;52.608;13.260;2022-07-29T04:12:32;101461.00;;;14.00
71463;BMP180;59266;52.608;13.260;2022-07-29T04:14:59;101471.00;;;14.20
71463;BMP180;59266;52.608;13.260;2022-07-29T04:17:25;101463.00;;;14.20
71463;BMP180;59266;52.608;13.260;2022-07-29T04:19:52;101456.00;;;14.20
71463;BMP180;59266;52.608;13.260;2022-07-29T04:22:18;101469.00;;;14.30
71463;BMP180;59266;52.608;13.260;2022-07-29T04:24:45;101469.00;;;14.20
71463;BMP180;59266;52.608;13.260;2022-07-29T04:27:12;101481.00;;;14.30
71463;BMP180;59266;52.608;13.260;2022-07-29T04:29:38;101479.00;;;14.40
71463;BMP180;59266;52.608;13.260;2022-07-29T04:32:22;101482.00;;;14.60
71463;BMP180;59266;52.608;13.260;2022-07-29T04:34:49;101476.00;;;14.40
71463;BMP180;59266;52.608;13.260;2022-07-29T04:37:15;101476.00;;;14.50
71463;BMP180;59266;52.608;13.260;2022-07-29T04:39:42;101478.00;;;14.40
71463;BMP180;59266;52.608;13.260;2022-07-29T04:42:08;101478.00;;;14.40
71463;BMP180;59266;52.608;13.260;2022-07-29T04:44:35;101471.00;;;14.50
71463;BMP180;59266;52.608;13.260;2022-07-29T04:47:07;101472.00;;;14.60
71463;BMP180;59266;52.608;13.260;2022-07-29T04:49:37;101476.00;;;14.60
71463;BMP180;59266;52.608;13.260;2022-07-29T04:52:04;101476.00;;;14.90
71463;BMP180;59266;52.608;13.260;2022-07-29T04:54:32;101479.00;;;14.90
71463;BMP180;59266;52.608;13.260;2022-07-29T04:56:58;101475.00;;;15.00
71463;BMP180;59266;52.608;13.260;2022-07-29T04:59:25;101481.00;;;15.30
71463;BMP180;59266;52.608;13.260;2022-07-29T05:01:52;101477.00;;;15.40
71463;BMP180;59266;52.608;13.260;2022-07-29T05:04:19;101473.00;;;15.50
71463;BMP180;59266;52.608;13.260;2022-07-29T05:06:46;101467.00;;;15.80
71463;BMP180;59266;52.608;13.260;2022-07-29T05:09:13;101463.00;;;15.90
71463;BMP180;59266;52.608;13.260;2022-07-29T05:11:39;101463.00;;;16.10
71463;BMP180;59266;52.608;13.260;2022-07-29T05:14:06;101462.00;;;16.40
71463;BMP180;59266;52.608;13.260;2022-07-29T05:16:32;101470.00;;;16.70
71463;BMP180;59266;52.608;13.260;2022-07-29T05:19:02;101464.00;;;16.80
71463;BMP180;59266;52.608;13.260;2022-07-29T05:21:29;101468.00;;;17.10
71463;BMP180;59266;52.608;13.260;2022-07-29T05:23:56;101457.00;;;17.20
71463;BMP180;59266;52.608;13.260;2022-07-29T05:26:23;101463.00;;;17.30
71463;BMP180;59266;52.608;13.260;2022-07-29T05:28:49;101455.00;;;17.30
71463;BMP180;59266;52.608;13.260;2022-07-29T05:31:16;101461.00;;;17.00
71463;BMP180;59266;52.608;13.260;2022-07-29T05:33:42;101462.00;;;17.30
71463;BMP180;59266;52.608;13.260;2022-07-29T05:36:09;101463.00;;;17.10
71463;BMP180;59266;52.608;13.260;2022-07-29T05:38:36;101461.00;;;17.40
71463;BMP180;59266;52.608;13.260;2022-07-29T05:41:03;101462.00;;;17.30
71463;BMP180;59266;52.608;13.260;2022-07-29T05:43:30;101456.00;;;17.10
71463;BMP180;59266;52.608;13.260;2022-07-29T05:45:57;101458.00;;;16.90
71463;BMP180;59266;52.608;13.260;2022-07-29T05:48:24;101458.00;;;17.00
71463;BMP180;59266;52.608;13.260;2022-07-29T05:50:50;101461.00;;;17.10
71463;BMP180;59266;52.608;13.260;2022-07-29T05:53:17;101464.00;;;17.20
71463;BMP180;59266;52.608;13.260;2022-07-29T05:55:46;101470.00;;;17.40
71463;BMP180;59266;52.608;13.260;2022-07-29T05:58:12;101470.00;;;17.60
71463;BMP180;59266;52.608;13.260;2022-07-29T06:00:39;101463.00;;;17.90
71463;BMP180;59266;52.608;13.260;2022-07-29T06:03:06;101465.00;;;18.40
71463;BMP180;59266;52.608;13.260;2022-07-29T06:05:32;101469.00;;;18.60
71463;BMP180;59266;52.608;13.260;2022-07-29T06:07:59;101470.00;;;18.90
71463;BMP180;59266;52.608;13.260;2022-07-29T06:10:25;101466.00;;;19.20
71463;BMP180;59266;52.608;13.260;2022-07-29T06:12:53;101468.00;;;19.50
71463;BMP180;59266;52.608;13.260;2022-07-29T06:15:20;101469.00;;;19.70
71463;BMP180;59266;52.608;13.260;2022-07-29T06:17:46;101467.00;;;19.40
71463;BMP180;59266;52.608;13.260;2022-07-29T06:20:28;101461.00;;;20.80
71463;BMP180;59266;52.608;13.260;2022-07-29T06:22:57;101464.00;;;20.90
71463;BMP180;59266;52.608;13.260;2022-07-29T06:25:23;101463.00;;;20.40
71463;BMP180;59266;52.608;13.260;2022-07-29T06:27:50;101462.00;;;20.20
71463;BMP180;59266;52.608;13.260;2022-07-29T06:30:16;101457.00;;;20.30
71463;BMP180;59266;52.608;13.260;2022-07-29T06:32:42;101471.00;;;20.30
71463;BMP180;59266;52.608;13.260;2022-07-29T06:35:09;101469.00;;;19.50
71463;BMP180;59266;52.608;13.260;2022-07-29T06:37:55;101467.00;;;19.60
71463;BMP180;59266;52.608;13.260;2022-07-29T06:40:25;101464.00;;;19.50
71463;BMP180;59266;52.608;13.260;2022-07-29T06:43:10;101463.00;;;19.30
71463;BMP180;59266;52.608;13.260;2022-07-29T06:45:37;101471.00;;;19.50
71463;BMP180;59266;52.608;13.260;2022-07-29T06:48:07;101455.00;;;19.60
71463;BMP180;59266;52.608;13.260;2022-07-29T06:50:35;101464.00;;;19.90
71463;BMP180;59266;52.608;13.260;2022-07-29T06:53:02;101456.00;;;20.00
71463;BMP180;59266;52.608;13.260;2022-07-29T06:55:28;101464.00;;;20.30
71463;BMP180;59266;52.608;13.260;2022-07-29T06:57:55;101468.00;;;21.10
71463;BMP180;59266;52.608;13.260;2022-07-29T07:00:21;101472.00;;;22.30
71463;BMP180;59266;52.608;13.260;2022-07-29T07:02:48;101472.00;;;22.90
71463;BMP180;59266;52.608;13.260;2022-07-29T07:05:15;101479.00;;;23.10
71463;BMP180;59266;52.608;13.260;2022-07-29T07:07:41;101483.00;;;23.50
71463;BMP180;59266;52.608;13.260;2022-07-29T07:10:08;101473.00;;;22.40
71463;BMP180;59266;52.608;13.260;2022-07-29T07:12:34;101478.00;;;22.30
71463;BMP180;59266;52.608;13.260;2022-07-29T07:15:01;101480.00;;;22.70
71463;BMP180;59266;52.608;13.260;2022-07-29T07:17:28;101461.00;;;25.40
71463;BMP180;59266;52.608;13.260;2022-07-29T07:19:54;101456.00;;;26.40
71463;BMP180;59266;52.608;13.260;2022-07-29T07:22:21;101465.00;;;27.20
71463;BMP180;59266;52.608;13.260;2022-07-29T07:24:47;101460.00;;;27.70
71463;BMP180;59266;52.608;13.260;2022-07-29T07:27:14;101466.00;;;27.10
71463;BMP180;59266;52.608;13.260;2022-07-29T07:29:40;101475.00;;;29.40
71463;BMP180;59266;52.608;13.260;2022-07-29T07:32:09;101457.00;;;28.70
71463;BMP180;59266;52.608;13.260;2022-07-29T07:34:36;101463.00;;;28.40
71463;BMP180;59266;52.608;13.260;2022-07-29T07:37:04;101473.00;;;30.00
71463;BMP180;59266;52.608;13.260;2022-07-29T07:39:31;101463.00;;;31.30
71463;BMP180;59266;52.608;13.260;2022-07-29T07:41:57;101457.00;;;32.40
71463;BMP180;59266;52.608;13.260;2022-07-29T07:44:24;101447.00;;;30.80
71463;BMP180;59266;52.608;13.260;2022-07-29T07:46:51;101456.00;;;31.00
71463;BMP180;59266;52.608;13.260;2022-07-29T07:49:18;101462.00;;;32.30
71463;BMP180;59266;52.608;13.260;2022-07-29T07:51:45;101462.00;;;31.50
71463;BMP180;59266;52.608;13.260;2022-07-29T07:54:16;101459.00;;;31.60
71463;BMP180;59266;52.608;13.260;2022-07-29T07:56:46;101460.00;;;34.00
71463;BMP180;59266;52.608;13.260;2022-07-29T07:59:18;101466.00;;;34.80
71463;BMP180;59266;52.608;13.260;2022-07-29T08:01:44;101461.00;;;37.50
71463;BMP180;59266;52.608;13.260;2022-07-29T08:04:21;101469.00;;;36.70
71463;BMP180;59266;52.608;13.260;2022-07-29T08:06:54;101465.00;;;35.30
71463;BMP180;59266;52.608;13.260;2022-07-29T08:09:21;101468.00;;;32.70
71463;BMP180;59266;52.608;13.260;2022-07-29T08:11:55;101459.00;;;32.80
71463;BMP180;59266;52.608;13.260;2022-07-29T08:14:22;101455.00;;;33.80
71463;BMP180;59266;52.608;13.260;2022-07-29T08:16:48;101456.00;;;34.70
71463;BMP180;59266;52.608;13.260;2022-07-29T08:19:15;101446.00;;;34.10
71463;BMP180;59266;52.608;13.260;2022-07-29T08:21:42;101452.00;;;34.80
71463;BMP180;59266;52.608;13.260;2022-07-29T08:24:11;101440.00;;;36.50
71463;BMP180;59266;52.608;13.260;2022-07-29T08:26:56;101447.00;;;38.90
71463;BMP180;59266;52.608;13.260;2022-07-29T08:29:22;101447.00;;;38.60
71463;BMP180;59266;52.608;13.260;2022-07-29T08:31:49;101445.00;;;40.80
71463;BMP180;59266;52.608;13.260;2022-07-29T08:34:16;101439.00;;;41.90
71463;BMP180;59266;52.608;13.260;2022-07-29T08:36:42;101444.00;;;41.80
71463;BMP180;59266;52.608;13.260;2022-07-29T08:39:09;101451.00;;;38.80
71463;BMP180;59266;52.608;13.260;2022-07-29T08:41:36;101448.00;;;40.20
71463;BMP180;59266;52.608;13.260;2022-07-29T08:44:03;101439.00;;;40.90
71463;BMP180;59266;52.608;13.260;2022-07-29T08:46:29;101433.00;;;40.10
71463;BMP180;59266;52.608;13.260;2022-07-29T08:48:56;101435.00;;;40.90
71463;BMP180;59266;52.608;13.260;2022-07-29T08:51:24;101421.00;;;39.00
71463;BMP180;59266;52.608;13.260;2022-07-29T08:53:51;101430.00;;;36.80
71463;BMP180;59266;52.608;13.260;2022-07-29T08:56:19;101433.00;;;39.00
71463;BMP180;59266;52.608;13.260;2022-07-29T08:58:46;101426.00;;;38.20
71463;BMP180;59266;52.608;13.260;2022-07-29T09:01:21;101431.00;;;39.80
71463;BMP180;59266;52.608;13.260;2022-07-29T09:04:04;101435.00;;;39.20
71463;BMP180;59266;52.608;13.260;2022-07-29T09:06:34;101441.00;;;36.30
71463;BMP180;59266;52.608;13.260;2022-07-29T09:09:02;101423.00;;;36.70
71463;BMP180;59266;52.608;13.260;2022-07-29T09:11:31;101429.00;;;38.40
71463;BMP180;59266;52.608;13.260;2022-07-29T09:13:58;101438.00;;;39.80
71463;BMP180;59266;52.608;13.260;2022-07-29T09:16:25;101442.00;;;37.40
71463;BMP180;59266;52.608;13.260;2022-07-29T09:19:22;101431.00;;;38.10
71463;BMP180;59266;52.608;13.260;2022-07-29T09:21:49;101421.00;;;37.50
71463;BMP180;59266;52.608;13.260;2022-07-29T09:24:46;101446.00;;;37.40
71463;BMP180;59266;52.608;13.260;2022-07-29T09:29:54;101447.00;;;35.70
71463;BMP180;59266;52.608;13.260;2022-07-29T09:32:21;101424.00;;;35.40
71463;BMP180;59266;52.608;13.260;2022-07-29T09:34:48;101425.00;;;35.80
71463;BMP180;59266;52.608;13.260;2022-07-29T09:37:28;101421.00;;;34.10
71463;BMP180;59266;52.608;13.260;2022-07-29T09:39:54;101435.00;;;33.90
71463;BMP180;59266;52.608;13.260;2022-07-29T09:42:28;101438.00;;;34.50
71463;BMP180;59266;52.608;13.260;2022-07-29T09:44:55;101420.00;;;33.90
71463;BMP180;59266;52.608;13.260;2022-07-29T09:47:22;101425.00;;;33.60
71463;BMP180;59266;52.608;13.260;2022-07-29T09:49:57;101407.00;;;35.20
71463;BMP180;59266;52.608;13.260;2022-07-29T09:52:28;101427.00;;;35.80
71463;BMP180;59266;52.608;13.260;2022-07-29T09:55:06;101408.00;;;35.30
71463;BMP180;59266;52.608;13.260;2022-07-29T09:57:33;101404.00;;;36.80
71463;BMP180;59266;52.608;13.260;2022-07-29T10:00:08;101395.00;;;37.60
71463;BMP180;59266;52.608;13.260;2022-07-29T10:02:36;101407.00;;;37.30
71463;BMP180;59266;52.608;13.260;2022-07-29T10:05:15;101399.00;;;35.70
71463;BMP180;59266;52.608;13.260;2022-07-29T10:07:46;101392.00;;;36.40
71463;BMP180;59266;52.608;13.260;2022-07-29T10:10:30;101397.00;;;35.00
71463;BMP180;59266;52.608;13.260;2022-07-29T10:13:00;101403.00;;;34.90
71463;BMP180;59266;52.608;13.260;2022-07-29T10:15:36;101389.00;;;34.80
71463;BMP180;59266;52.608;13.260;2022-07-29T10:18:08;101383.00;;;34.10
71463;BMP180;59266;52.608;13.260;2022-07-29T10:20:37;101417.00;;;33.40
71463;BMP180;59266;52.608;13.260;2022-07-29T10:23:04;101393.00;;;33.50
71463;BMP180;59266;52.608;13.260;2022-07-29T10:25:31;101404.00;;;33.50
71463;BMP180;59266;52.608;13.260;2022-07-29T10:27:57;101403.00;;;33.10
71463;BMP180;59266;52.608;13.260;2022-07-29T10:30:25;101410.00;;;33.30
71463;BMP180;59266;52.608;13.260;2022-07-29T10:33:36;101413.00;;;31.80
71463;BMP180;59266;52.608;13.260;2022-07-29T10:36:23;101417.00;;;32.10
71463;BMP180;59266;52.608;13.260;2022-07-29T10:39:03;101422.00;;;31.40
71463;BMP180;59266;52.608;13.260;2022-07-29T10:41:59;101417.00;;;30.00
71463;BMP180;59266;52.608;13.260;2022-07-29T10:44:29;101411.00;;;29.90
71463;BMP180;59266;52.608;13.260;2022-07-29T10:46:56;101409.00;;;30.40
71463;BMP180;59266;52.608;13.260;2022-07-29T10:49:25;101406.00;;;30.70
71463;BMP180;59266;52.608;13.260;2022-07-29T10:52:09;101401.00;;;31.10
71463;BMP180;59266;52.608;13.260;2022-07-29T10:57:15;101410.00;;;31.90
71463;BMP180;59266;52.608;13.260;2022-07-29T10:59:44;101404.00;;;31.90
71463;BMP180;59266;52.608;13.260;2022-07-29T11:05:13;101402.00;;;31.30
71463;BMP180;59266;52.608;13.260;2022-07-29T11:10:46;101383.00;;;31.30
71463;BMP180;59266;52.608;13.260;2022-07-29T11:16:07;101376.00;;;31.60
71463;BMP180;59266;52.608;13.260;2022-07-29T11:18:36;101366.00;;;31.60
71463;BMP180;59266;52.608;13.260;2022-07-29T11:21:38;101384.00;;;32.30
71463;BMP180;59266;52.608;13.260;2022-07-29T11:24:23;101372.00;;;31.70
71463;BMP180;59266;52.608;13.260;2022-07-29T11:27:18;101368.00;;;32.10
71463;BMP180;59266;52.608;13.260;2022-07-29T11:29:52;101407.00;;;32.20
71463;BMP180;59266;52.608;13.260;2022-07-29T11:32:20;101396.00;;;31.20
71463;BMP180;59266;52.608;13.260;2022-07-29T11:34:49;101388.00;;;30.80
71463;BMP180;59266;52.608;13.260;2022-07-29T11:41:25;101368.00;;;31.50
71463;BMP180;59266;52.608;13.260;2022-07-29T11:44:11;101358.00;;;32.30
71463;BMP180;59266;52.608;13.260;2022-07-29T11:46:47;101356.00;;;33.60
71463;BMP180;59266;52.608;13.260;2022-07-29T11:49:23;101362.00;;;33.60
71463;BMP180;59266;52.608;13.260;2022-07-29T11:51:58;101352.00;;;32.90
71463;BMP180;59266;52.608;13.260;2022-07-29T11:54:48;101364.00;;;32.70
71463;BMP180;59266;52.608;13.260;2022-07-29T11:57:26;101355.00;;;31.90
71463;BMP180;59266;52.608;13.260;2022-07-29T12:00:21;101351.00;;;32.30
71463;BMP180;59266;52.608;13.260;2022-07-29T12:02:50;101372.00;;;31.90
71463;BMP180;59266;52.608;13.260;2022-07-29T12:05:17;101359.00;;;31.70
71463;BMP180;59266;52.608;13.260;2022-07-29T12:08:30;101350.00;;;32.30
71463;BMP180;59266;52.608;13.260;2022-07-29T12:11:15;101338.00;;;32.90
71463;BMP180;59266;52.608;13.260;2022-07-29T12:13:42;101327.00;;;32.70
71463;BMP180;59266;52.608;13.260;2022-07-29T12:16:10;101342.00;;;32.30
71463;BMP180;59266;52.608;13.260;2022-07-29T12:18:40;101343.00;;;31.70
71463;BMP180;59266;52.608;13.260;2022-07-29T12:21:06;101330.00;;;32.80
71463;BMP180;59266;52.608;13.260;2022-07-29T12:23:37;101340.00;;;32.30
71463;BMP180;59266;52.608;13.260;2022-07-29T12:26:05;101334.00;;;33.30
71463;BMP180;59266;52.608;13.260;2022-07-29T12:28:37;101341.00;;;32.30
71463;BMP180;59266;52.608;13.260;2022-07-29T12:31:04;101326.00;;;32.60
71463;BMP180;59266;52.608;13.260;2022-07-29T12:33:33;101317.00;;;32.90
71463;BMP180;59266;52.608;13.260;2022-07-29T12:36:02;101316.00;;;32.70
71463;BMP180;59266;52.608;13.260;2022-07-29T12:38:40;101316.00;;;32.80
71463;BMP180;59266;52.608;13.260;2022-07-29T12:41:06;101312.00;;;33.50
71463;BMP180;59266;52.608;13.260;2022-07-29T12:43:33;101313.00;;;32.70
71463;BMP180;59266;52.608;13.260;2022-07-29T12:46:12;101312.00;;;32.60
71463;BMP180;59266;52.608;13.260;2022-07-29T12:48:41;101315.00;;;32.80
71463;BMP180;59266;52.608;13.260;2022-07-29T12:51:09;101318.00;;;33.00
71463;BMP180;59266;52.608;13.260;2022-07-29T12:53:36;101315.00;;;32.40
71463;BMP180;59266;52.608;13.260;2022-07-29T12:56:04;101313.00;;;32.50
71463;BMP180;59266;52.608;13.260;2022-07-29T12:58:51;101307.00;;;33.30
71463;BMP180;59266;52.608;13.260;2022-07-29T13:01:18;101309.00;;;34.40
71463;BMP180;59266;52.608;13.260;2022-07-29T13:03:57;101309.00;;;33.90
71463;BMP180;59266;52.608;13.260;2022-07-29T13:06:43;101334.00;;;33.50
71463;BMP180;59266;52.608;13.260;2022-07-29T13:09:19;101309.00;;;33.20
71463;BMP180;59266;52.608;13.260;2022-07-29T13:11:50;101306.00;;;33.80
71463;BMP180;59266;52.608;13.260;2022-07-29T13:14:34;101296.00;;;33.50
71463;BMP180;59266;52.608;13.260;2022-07-29T13:17:08;101305.00;;;33.90
71463;BMP180;59266;52.608;13.260;2022-07-29T13:19:40;101296.00;;;34.40
71463;BMP180;59266;52.608;13.260;2022-07-29T13:22:08;101288.00;;;34.20
71463;BMP180;59266;52.608;13.260;2022-07-29T13:24:49;101287.00;;;34.10
71463;BMP180;59266;52.608;13.260;2022-07-29T13:27:26;101306.00;;;34.30
71463;BMP180;59266;52.608;13.260;2022-07-29T13:29:55;101296.00;;;34.30
71463;BMP180;59266;52.608;13.260;2022-07-29T13:32:27;101281.00;;;34.40
71463;BMP180;59266;52.608;13.260;2022-07-29T13:34:59;101284.00;;;35.00
71463;BMP180;59266;52.608;13.260;2022-07-29T13:37:30;101279.00;;;35.70
71463;BMP180;59266;52.608;13.260;2022-07-29T13:39:59;101289.00;;;34.60
71463;BMP180;59266;52.608;13.260;2022-07-29T13:42:26;101282.00;;;33.90
71463;BMP180;59266;52.608;13.260;2022-07-29T13:44:52;101280.00;;;34.30
71463;BMP180;59266;52.608;13.260;2022-07-29T13:47:19;101280.00;;;33.90
71463;BMP180;59266;52.608;13.260;2022-07-29T13:49:46;101273.00;;;34.20
71463;BMP180;59266;52.608;13.260;2022-07-29T13:52:12;101264.00;;;34.30
71463;BMP180;59266;52.608;13.260;2022-07-29T13:54:39;101271.00;;;34.90
71463;BMP180;59266;52.608;13.260;2022-07-29T13:57:08;101266.00;;;35.10
71463;BMP180;59266;52.608;13.260;2022-07-29T13:59:38;101271.00;;;34.30
71463;BMP180;59266;52.608;13.260;2022-07-29T14:02:04;101272.00;;;34.10
71463;BMP180;59266;52.608;13.260;2022-07-29T14:04:32;101292.00;;;33.90
71463;BMP180;59266;52.608;13.260;2022-07-29T14:06:59;101260.00;;;34.50
71463;BMP180;59266;52.608;13.260;2022-07-29T14:09:29;101258.00;;;34.90
71463;BMP180;59266;52.608;13.260;2022-07-29T14:12:07;101258.00;;;35.10
71463;BMP180;59266;52.608;13.260;2022-07-29T14:14:33;101257.00;;;34.90
71463;BMP180;59266;52.608;13.260;2022-07-29T14:17:02;101266.00;;;34.70
71463;BMP180;59266;52.608;13.260;2022-07-29T14:19:29;101266.00;;;34.30
71463;BMP180;59266;52.608;13.260;2022-07-29T14:21:58;101263.00;;;34.00
71463;BMP180;59266;52.608;13.260;2022-07-29T14:24:27;101275.00;;;34.00
71463;BMP180;59266;52.608;13.260;2022-07-29T14:26:54;101283.00;;;33.90
71463;BMP180;59266;52.608;13.260;2022-07-29T14:29:21;101282.00;;;32.90